createdAt,value
2023-01-09T00:01:55.718Z,8.40
2023-01-09T00:04:22.204Z,11.90
2023-01-09T00:06:53.932Z,9.83
2023-01-09T00:09:21.572Z,10.70
2023-01-09T00:11:48.331Z,10.70
2023-01-09T00:14:18.863Z,10.83
2023-01-09T00:16:45.475Z,10.43
2023-01-09T00:19:12.243Z,10.70
2023-01-09T00:21:38.795Z,10.43
2023-01-09T00:24:05.646Z,12.40
2023-01-09T00:26:32.415Z,9.97
2023-01-09T00:29:00.165Z,9.67
2023-01-09T00:31:26.725Z,9.40
2023-01-09T00:34:19.235Z,8.83
2023-01-09T00:36:45.694Z,10.60
2023-01-09T00:39:12.210Z,11.43
2023-01-09T00:41:47.069Z,9.60
2023-01-09T00:44:16.989Z,10.40
2023-01-09T00:46:46.674Z,9.40
2023-01-09T00:49:14.726Z,9.30
2023-01-09T00:51:41.880Z,10.33
2023-01-09T00:54:10.343Z,9.20
2023-01-09T00:56:37.149Z,9.47
2023-01-09T00:59:04.141Z,9.47
2023-01-09T01:01:30.686Z,8.90
2023-01-09T01:03:57.270Z,10.97
2023-01-09T01:06:42.397Z,9.63
2023-01-09T01:09:09.058Z,9.63
2023-01-09T01:11:35.893Z,8.90
2023-01-09T01:14:02.409Z,9.70
2023-01-09T01:16:28.913Z,8.93
2023-01-09T01:18:55.396Z,9.77
2023-01-09T01:21:21.985Z,9.70
2023-01-09T01:23:48.429Z,8.43
2023-01-09T01:26:16.339Z,9.07
2023-01-09T01:28:43.041Z,8.97
2023-01-09T01:31:16.319Z,9.10
2023-01-09T01:33:43.001Z,10.10
2023-01-09T01:36:09.805Z,8.90
2023-01-09T01:38:36.696Z,9.53
2023-01-09T01:41:03.966Z,9.83
2023-01-09T01:43:54.208Z,10.73
2023-01-09T01:46:20.699Z,9.27
2023-01-09T01:48:51.676Z,8.70
2023-01-09T01:51:18.812Z,9.90
2023-01-09T01:53:53.748Z,8.30
2023-01-09T01:56:27.717Z,9.27
2023-01-09T01:59:05.649Z,10.17
2023-01-09T02:01:33.744Z,10.73
2023-01-09T02:04:01.259Z,9.80
2023-01-09T02:06:29.003Z,10.70
2023-01-09T02:08:55.867Z,9.13
2023-01-09T02:11:22.467Z,8.30
2023-01-09T02:13:49.107Z,9.87
2023-01-09T02:16:25.813Z,9.90
2023-01-09T02:19:01.358Z,8.80
2023-01-09T02:21:48.970Z,9.57
2023-01-09T02:24:36.730Z,9.07
2023-01-09T02:27:12.873Z,9.20
2023-01-09T02:30:09.818Z,9.10
2023-01-09T02:32:46.840Z,9.50
2023-01-09T02:35:37.441Z,9.43
2023-01-09T02:38:03.793Z,8.53
2023-01-09T02:40:32.931Z,9.00
2023-01-09T02:43:00.387Z,8.93
2023-01-09T02:45:27.282Z,11.57
2023-01-09T02:47:53.800Z,13.77
2023-01-09T02:50:23.364Z,14.60
2023-01-09T02:53:14.814Z,16.60
2023-01-09T02:56:06.267Z,17.77
2023-01-09T02:58:58.467Z,17.13
2023-01-09T03:01:37.441Z,13.90
2023-01-09T03:04:10.744Z,16.53
2023-01-09T03:06:49.743Z,15.80
2023-01-09T03:09:22.369Z,15.00
2023-01-09T03:11:57.698Z,16.83
2023-01-09T03:14:26.024Z,17.13
2023-01-09T03:16:56.985Z,15.00
2023-01-09T03:19:26.589Z,14.23
2023-01-09T03:21:53.367Z,15.40
2023-01-09T03:24:19.937Z,14.13
2023-01-09T03:26:46.404Z,16.53
2023-01-09T03:29:12.877Z,14.70
2023-01-09T03:31:39.387Z,14.30
2023-01-09T03:34:05.942Z,14.77
2023-01-09T03:36:32.547Z,13.70
2023-01-09T03:38:59.007Z,14.67
2023-01-09T03:41:25.496Z,15.37
2023-01-09T03:43:51.963Z,15.10
2023-01-09T03:46:18.412Z,14.03
2023-01-09T03:48:45.031Z,12.10
2023-01-09T03:51:11.697Z,15.17
2023-01-09T03:53:39.195Z,15.13
2023-01-09T03:56:06.274Z,14.47
2023-01-09T03:58:32.944Z,15.67
2023-01-09T04:01:01.941Z,11.80
2023-01-09T04:03:28.801Z,14.40
2023-01-09T04:05:55.409Z,15.20
2023-01-09T04:08:22.296Z,13.30
2023-01-09T04:10:49.525Z,14.27
2023-01-09T04:13:16.424Z,14.17
2023-01-09T04:15:42.860Z,14.97
2023-01-09T04:18:09.516Z,13.97
2023-01-09T04:20:36.055Z,14.90
2023-01-09T04:23:02.621Z,14.20
2023-01-09T04:25:29.285Z,13.37
2023-01-09T04:27:55.745Z,12.53
2023-01-09T04:30:22.202Z,14.60
2023-01-09T04:32:48.637Z,14.00
2023-01-09T04:35:15.297Z,15.07
2023-01-09T04:37:41.743Z,13.53
2023-01-09T04:40:10.527Z,13.73
2023-01-09T04:42:37.604Z,14.00
2023-01-09T04:45:05.538Z,14.43
2023-01-09T04:47:32.645Z,13.10
2023-01-09T04:49:59.742Z,12.97
2023-01-09T04:52:26.540Z,13.23
2023-01-09T04:54:53.006Z,15.93
2023-01-09T04:57:19.502Z,12.80
2023-01-09T04:59:46.057Z,14.20
2023-01-09T05:02:12.713Z,13.97
2023-01-09T05:04:39.322Z,13.83
2023-01-09T05:07:05.865Z,14.80
2023-01-09T05:09:32.532Z,14.80
2023-01-09T05:12:01.121Z,13.77
2023-01-09T05:14:28.203Z,14.30
2023-01-09T05:16:54.688Z,14.43
2023-01-09T05:19:21.490Z,15.40
2023-01-09T05:21:47.942Z,13.43
2023-01-09T05:24:14.382Z,17.20
2023-01-09T05:26:40.843Z,13.47
2023-01-09T05:29:07.305Z,15.40
2023-01-09T05:31:33.796Z,15.17
2023-01-09T05:34:00.797Z,14.40
2023-01-09T05:36:28.175Z,14.43
2023-01-09T05:38:54.635Z,14.03
2023-01-09T05:41:23.544Z,14.70
2023-01-09T05:43:50.633Z,16.90
2023-01-09T05:46:17.092Z,15.63
2023-01-09T05:48:44.508Z,16.07
2023-01-09T05:51:12.089Z,15.07
2023-01-09T05:53:38.527Z,12.57
2023-01-09T05:56:05.208Z,16.27
2023-01-09T05:58:31.664Z,15.17
2023-01-09T06:00:58.550Z,13.17
2023-01-09T06:03:25.122Z,13.77
2023-01-09T06:05:51.787Z,14.33
2023-01-09T06:08:18.263Z,16.70
2023-01-09T06:10:46.154Z,15.47
2023-01-09T06:13:12.714Z,15.83
2023-01-09T06:15:39.294Z,15.77
2023-01-09T06:18:05.881Z,16.20
2023-01-09T06:20:32.445Z,15.63
2023-01-09T06:22:58.901Z,15.00
2023-01-09T06:25:25.369Z,15.50
2023-01-09T06:27:52.120Z,15.93
2023-01-09T06:30:19.598Z,16.03
2023-01-09T06:32:49.543Z,15.17
2023-01-09T06:35:20.311Z,15.43
2023-01-09T06:37:50.041Z,13.97
2023-01-09T06:40:17.757Z,15.50
2023-01-09T06:42:45.410Z,15.53
2023-01-09T06:45:15.301Z,12.13
2023-01-09T06:47:41.828Z,14.70
2023-01-09T06:50:09.392Z,13.53
2023-01-09T06:52:39.559Z,14.60
2023-01-09T06:55:07.224Z,14.47
2023-01-09T06:57:33.692Z,14.13
2023-01-09T07:00:00.189Z,15.33
2023-01-09T07:02:26.692Z,13.90
2023-01-09T07:04:53.167Z,15.50
2023-01-09T07:07:20.363Z,13.80
2023-01-09T07:09:46.800Z,14.00
2023-01-09T07:12:14.896Z,14.83
2023-01-09T07:14:41.812Z,13.90
2023-01-09T07:17:08.327Z,13.27
2023-01-09T07:19:34.756Z,14.30
2023-01-09T07:22:01.237Z,13.53
2023-01-09T07:24:28.013Z,14.57
2023-01-09T07:26:54.432Z,15.07
2023-01-09T07:29:20.880Z,14.37
2023-01-09T07:31:47.716Z,13.77
2023-01-09T07:34:14.187Z,15.30
2023-01-09T07:36:40.699Z,15.40
2023-01-09T07:39:07.190Z,14.00
2023-01-09T07:41:33.635Z,15.60
2023-01-09T07:44:00.384Z,14.70
2023-01-09T07:46:28.778Z,14.10
2023-01-09T07:48:56.118Z,13.73
2023-01-09T07:51:22.576Z,15.90
2023-01-09T07:53:49.013Z,14.40
2023-01-09T07:56:15.539Z,12.70
2023-01-09T07:58:42.015Z,13.60
2023-01-09T08:01:08.503Z,15.00
2023-01-09T08:03:35.075Z,15.00
2023-01-09T08:06:01.931Z,13.23
2023-01-09T08:08:28.435Z,15.47
2023-01-09T08:10:54.897Z,13.30
2023-01-09T08:13:21.540Z,13.27
2023-01-09T08:15:48.211Z,13.40
2023-01-09T08:18:14.684Z,14.77
2023-01-09T08:20:41.139Z,13.33
2023-01-09T08:23:07.596Z,13.07
2023-01-09T08:25:34.053Z,15.17
2023-01-09T08:28:00.536Z,13.50
2023-01-09T08:30:26.983Z,13.47
2023-01-09T08:32:54.435Z,12.77
2023-01-09T08:35:21.069Z,13.73
2023-01-09T08:37:48.795Z,11.63
2023-01-09T08:40:15.906Z,12.27
2023-01-09T08:43:00.956Z,11.90
2023-01-09T08:45:46.055Z,11.97
2023-01-09T08:48:12.632Z,12.43
2023-01-09T08:50:39.134Z,13.80
2023-01-09T08:53:05.579Z,12.80
2023-01-09T08:55:32.031Z,11.60
2023-01-09T08:57:58.482Z,12.57
2023-01-09T09:00:25.525Z,11.87
2023-01-09T09:02:53.347Z,12.77
2023-01-09T09:05:20.574Z,10.60
2023-01-09T09:07:48.547Z,12.07
2023-01-09T09:10:18.935Z,11.90
2023-01-09T09:12:48.436Z,11.70
2023-01-09T09:15:23.827Z,12.60
2023-01-09T09:18:01.709Z,11.27
2023-01-09T09:20:30.328Z,11.03
2023-01-09T09:22:56.884Z,12.37
2023-01-09T09:25:23.355Z,11.07
2023-01-09T09:27:50.157Z,11.00
2023-01-09T09:30:18.544Z,10.43
2023-01-09T09:32:45.564Z,12.33
2023-01-09T09:35:12.232Z,11.50
2023-01-09T09:37:38.765Z,10.53
2023-01-09T09:40:17.565Z,11.10
2023-01-09T09:43:30.730Z,10.40
2023-01-09T09:46:07.707Z,11.17
2023-01-09T09:48:39.204Z,11.80
2023-01-09T09:51:56.550Z,11.70
2023-01-09T09:54:33.475Z,10.30
2023-01-09T09:57:02.520Z,11.37
2023-01-09T09:59:34.600Z,12.07
2023-01-09T10:02:09.310Z,12.50
2023-01-09T10:04:41.402Z,12.40
2023-01-09T10:07:27.096Z,11.40
2023-01-09T10:10:00.588Z,9.67
2023-01-09T10:12:34.350Z,10.40
2023-01-09T10:15:03.610Z,9.93
2023-01-09T10:17:49.055Z,9.30
2023-01-09T10:20:24.622Z,9.10
2023-01-09T10:23:11.253Z,8.60
2023-01-09T10:25:44.953Z,7.30
2023-01-09T10:28:42.518Z,3.30
2023-01-09T10:31:49.357Z,3.03
2023-01-09T10:34:41.936Z,2.93
2023-01-09T10:37:13.329Z,2.33
2023-01-09T10:39:57.872Z,1.73
2023-01-09T10:42:47.641Z,0.80
2023-01-09T10:45:25.535Z,1.07
2023-01-09T10:47:58.075Z,0.60
2023-01-09T10:50:27.856Z,0.43
2023-01-09T10:52:55.693Z,0.80
2023-01-09T10:55:39.799Z,0.50
2023-01-09T10:58:13.437Z,0.50
2023-01-09T11:00:40.755Z,0.60
2023-01-09T11:03:14.483Z,0.57
2023-01-09T11:05:41.337Z,0.90
2023-01-09T11:08:13.933Z,0.50
2023-01-09T11:10:52.378Z,1.13
2023-01-09T11:13:29.226Z,0.93
2023-01-09T11:16:20.257Z,0.50
2023-01-09T11:18:51.381Z,0.57
2023-01-09T11:21:37.980Z,0.80
2023-01-09T11:24:21.043Z,0.90
2023-01-09T11:26:51.885Z,0.80
2023-01-09T11:29:19.297Z,0.43
2023-01-09T11:31:59.207Z,0.50
2023-01-09T11:34:28.027Z,0.53
2023-01-09T11:37:04.250Z,0.60
2023-01-09T11:39:33.133Z,1.07
2023-01-09T11:42:02.543Z,0.63
2023-01-09T11:44:30.795Z,0.70
2023-01-09T11:46:57.428Z,0.80
2023-01-09T11:49:28.863Z,0.60
2023-01-09T11:52:14.207Z,0.70
2023-01-09T11:54:45.289Z,0.67
2023-01-09T11:57:12.154Z,0.73
2023-01-09T11:59:38.782Z,0.83
2023-01-09T12:02:23.766Z,0.67
2023-01-09T12:04:54.838Z,0.97
2023-01-09T12:07:44.331Z,0.80
2023-01-09T12:10:32.885Z,0.43
2023-01-09T12:13:12.246Z,0.70
2023-01-09T12:15:48.861Z,0.50
2023-01-09T12:18:25.402Z,0.50
2023-01-09T12:21:17.822Z,0.50
2023-01-09T12:23:56.188Z,0.67
2023-01-09T12:26:32.022Z,0.50
2023-01-09T12:29:18.521Z,0.53
2023-01-09T12:31:53.045Z,0.53
2023-01-09T12:34:28.692Z,0.60
2023-01-09T12:37:18.500Z,0.60
2023-01-09T12:39:59.112Z,0.80
2023-01-09T12:42:44.036Z,0.70
2023-01-09T12:45:34.076Z,0.70
2023-01-09T12:48:23.546Z,0.60
2023-01-09T12:51:08.581Z,0.70
2023-01-09T12:53:45.116Z,0.70
2023-01-09T12:56:15.484Z,0.70
2023-01-09T12:58:49.113Z,1.70
2023-01-09T13:01:22.393Z,1.23
2023-01-09T13:04:14.583Z,0.90
2023-01-09T13:06:45.952Z,0.70
2023-01-09T13:09:24.122Z,1.00
2023-01-09T13:12:12.367Z,0.70
2023-01-09T13:14:58.191Z,1.13
2023-01-09T13:17:46.982Z,1.47
2023-01-09T13:20:34.082Z,1.60
2023-01-09T13:23:02.027Z,1.23
2023-01-09T13:25:36.032Z,0.60
2023-01-09T13:28:07.524Z,0.80
2023-01-09T13:30:58.869Z,0.83
2023-01-09T13:33:30.877Z,0.60
2023-01-09T13:35:58.387Z,0.77
2023-01-09T13:38:26.787Z,0.50
2023-01-09T13:41:30.517Z,1.00
2023-01-09T13:43:59.903Z,0.67
2023-01-09T13:46:38.851Z,0.50
2023-01-09T13:49:05.955Z,1.13
2023-01-09T13:51:56.400Z,0.80
2023-01-09T13:55:00.142Z,0.70
2023-01-09T13:57:29.911Z,0.83
2023-01-09T14:00:19.278Z,1.00
2023-01-09T14:02:46.621Z,0.60
2023-01-09T14:05:36.253Z,0.80
2023-01-09T14:08:12.704Z,0.70
2023-01-09T14:10:49.121Z,1.00
2023-01-09T14:13:16.728Z,0.90
2023-01-09T14:15:44.929Z,0.80
2023-01-09T14:18:22.375Z,0.80
2023-01-09T14:24:03.520Z,0.73
2023-01-09T14:26:46.049Z,1.13
2023-01-09T14:29:30.874Z,0.80
2023-01-09T14:32:29.797Z,0.73
2023-01-09T14:35:08.635Z,0.90
2023-01-09T14:37:37.900Z,0.70
2023-01-09T14:40:15.536Z,1.47
2023-01-09T14:42:42.081Z,1.50
2023-01-09T14:45:15.573Z,0.90
2023-01-09T14:47:48.386Z,1.07
2023-01-09T14:50:35.579Z,0.90
2023-01-09T14:53:16.383Z,0.90
2023-01-09T14:55:54.602Z,0.80
2023-01-09T14:58:23.490Z,0.60
2023-01-09T15:01:11.176Z,0.83
2023-01-09T15:03:40.657Z,1.10
2023-01-09T15:06:14.260Z,0.77
2023-01-09T15:08:44.463Z,1.20
2023-01-09T15:11:11.483Z,1.10
2023-01-09T15:13:42.672Z,1.33
2023-01-09T15:16:24.391Z,1.10
2023-01-09T15:18:57.087Z,1.00
2023-01-09T15:21:25.272Z,1.20
2023-01-09T15:23:51.784Z,1.07
2023-01-09T15:26:29.079Z,1.43
2023-01-09T15:29:10.019Z,0.90
2023-01-09T15:31:37.934Z,1.60
2023-01-09T15:34:04.463Z,2.10
2023-01-09T15:36:31.162Z,1.37
2023-01-09T15:38:58.349Z,1.20
2023-01-09T15:41:45.743Z,1.10
2023-01-09T15:44:15.552Z,1.30
2023-01-09T15:46:43.792Z,0.87
2023-01-09T15:49:12.563Z,1.07
2023-01-09T15:51:41.865Z,1.10
2023-01-09T15:54:14.188Z,1.40
2023-01-09T15:56:42.764Z,1.20
2023-01-09T15:59:23.994Z,1.00
2023-01-09T16:02:20.812Z,1.33
2023-01-09T16:04:47.678Z,1.57
2023-01-09T16:07:16.124Z,1.57
2023-01-09T16:09:52.674Z,1.23
2023-01-09T16:12:22.216Z,1.20
2023-01-09T16:14:55.058Z,1.00
2023-01-09T16:17:26.792Z,1.00
2023-01-09T16:19:55.650Z,0.90
2023-01-09T16:22:26.301Z,1.03
2023-01-09T16:24:54.395Z,1.10
2023-01-09T16:27:26.444Z,1.27
2023-01-09T16:29:57.745Z,1.23
2023-01-09T16:32:51.288Z,1.40
2023-01-09T16:35:19.702Z,1.73
2023-01-09T16:37:46.841Z,1.30
2023-01-09T16:40:22.030Z,1.30
2023-01-09T16:43:01.400Z,1.50
2023-01-09T16:45:36.743Z,1.63
2023-01-09T16:48:11.275Z,2.17
2023-01-09T16:50:37.736Z,2.20
2023-01-09T16:53:14.609Z,1.97
2023-01-09T16:55:41.216Z,1.50
2023-01-09T16:58:13.636Z,1.50
2023-01-09T17:00:40.053Z,1.30
2023-01-09T17:03:06.549Z,1.80
2023-01-09T17:05:33.007Z,1.30
2023-01-09T17:07:59.432Z,1.43
2023-01-09T17:10:25.866Z,1.07
2023-01-09T17:12:52.333Z,1.20
2023-01-09T17:15:18.947Z,2.50
2023-01-09T17:17:45.454Z,2.30
2023-01-09T17:20:17.214Z,2.30
2023-01-09T17:22:43.670Z,2.40
2023-01-09T17:25:33.353Z,2.10
2023-01-09T17:28:18.626Z,2.00
2023-01-09T17:30:45.084Z,1.90
2023-01-09T17:33:18.546Z,1.80
2023-01-09T17:35:45.274Z,1.70
2023-01-09T17:38:14.297Z,1.60
2023-01-09T17:40:41.224Z,2.10
2023-01-09T17:43:07.677Z,2.57
2023-01-09T17:45:34.209Z,1.83
2023-01-09T17:48:00.727Z,2.03
2023-01-09T17:50:31.063Z,2.27
2023-01-09T17:52:57.549Z,3.10
2023-01-09T17:55:23.987Z,2.37
2023-01-09T17:57:50.580Z,3.00
2023-01-09T18:00:26.086Z,3.60
2023-01-09T18:02:53.518Z,4.40
2023-01-09T18:05:21.630Z,3.73
2023-01-09T18:07:48.771Z,4.20
2023-01-09T18:10:16.648Z,3.90
2023-01-09T18:12:43.128Z,4.10
2023-01-09T18:15:09.839Z,3.63
2023-01-09T18:17:36.310Z,3.60
2023-01-09T18:20:02.802Z,3.20
2023-01-09T18:22:29.422Z,2.50
2023-01-09T18:24:55.852Z,1.90
2023-01-09T18:27:22.365Z,2.13
2023-01-09T18:29:48.844Z,3.13
2023-01-09T18:32:15.295Z,2.83
2023-01-09T18:34:41.803Z,2.57
2023-01-09T18:37:08.386Z,3.10
2023-01-09T18:39:34.921Z,3.00
2023-01-09T18:42:01.481Z,3.10
2023-01-09T18:44:27.913Z,2.43
2023-01-09T18:46:54.532Z,2.43
2023-01-09T18:49:21.032Z,2.60
2023-01-09T18:51:47.515Z,2.43
2023-01-09T18:54:14.040Z,2.70
2023-01-09T18:56:40.563Z,3.40
2023-01-09T18:59:08.823Z,2.67
2023-01-09T19:01:35.457Z,3.70
2023-01-09T19:04:02.147Z,2.13
2023-01-09T19:06:29.527Z,2.77
2023-01-09T19:08:57.524Z,2.77
2023-01-09T19:11:23.981Z,2.67
2023-01-09T19:13:50.806Z,2.33
2023-01-09T19:16:17.675Z,3.20
2023-01-09T19:18:44.503Z,3.00
2023-01-09T19:21:15.740Z,2.90
2023-01-09T19:23:43.121Z,3.40
2023-01-09T19:26:16.595Z,2.83
2023-01-09T19:28:46.653Z,3.20
2023-01-09T19:31:16.118Z,3.10
2023-01-09T19:33:43.964Z,3.10
2023-01-09T19:36:10.592Z,3.00
2023-01-09T19:38:37.204Z,3.30
2023-01-09T19:41:14.045Z,2.93
2023-01-09T19:43:43.913Z,3.60
2023-01-09T19:46:13.439Z,2.70
2023-01-09T19:48:41.627Z,3.20
2023-01-09T19:51:09.297Z,4.00
2023-01-09T19:53:36.336Z,2.50
2023-01-09T19:56:13.201Z,4.03
2023-01-09T19:58:40.952Z,3.07
2023-01-09T20:01:07.471Z,3.23
2023-01-09T20:03:34.207Z,4.03
2023-01-09T20:06:05.559Z,3.57
2023-01-09T20:08:32.252Z,4.30
2023-01-09T20:11:08.181Z,3.80
2023-01-09T20:13:35.007Z,4.40
2023-01-09T20:16:03.066Z,3.37
2023-01-09T20:18:30.667Z,3.43
2023-01-09T20:20:57.387Z,4.33
2023-01-09T20:23:27.379Z,4.83
2023-01-09T20:25:54.549Z,5.00
2023-01-09T20:28:21.627Z,4.63
2023-01-09T20:30:50.483Z,4.87
2023-01-09T20:33:17.464Z,4.83
2023-01-09T20:35:44.134Z,3.73
2023-01-09T20:38:12.647Z,4.90
2023-01-09T20:40:39.622Z,4.60
2023-01-09T20:43:06.635Z,5.53
2023-01-09T20:45:36.260Z,4.60
2023-01-09T20:48:02.775Z,5.00
2023-01-09T20:50:31.128Z,5.30
2023-01-09T20:52:57.571Z,5.57
2023-01-09T20:55:24.024Z,7.20
2023-01-09T20:57:50.556Z,5.00
2023-01-09T21:00:17.442Z,5.87
2023-01-09T21:02:43.924Z,6.00
2023-01-09T21:05:10.370Z,6.13
2023-01-09T21:07:36.916Z,5.30
2023-01-09T21:10:03.588Z,4.60
2023-01-09T21:12:38.749Z,4.20
2023-01-09T21:15:08.607Z,4.50
2023-01-09T21:17:39.743Z,5.30
2023-01-09T21:20:12.222Z,5.40
2023-01-09T21:22:39.109Z,3.53
2023-01-09T21:25:06.337Z,4.77
2023-01-09T21:27:36.290Z,5.00
2023-01-09T21:30:05.067Z,4.40
2023-01-09T21:32:32.841Z,3.83
2023-01-09T21:35:04.156Z,4.53
2023-01-09T21:37:32.435Z,3.80
2023-01-09T21:39:59.303Z,4.13
2023-01-09T21:42:44.426Z,5.27
2023-01-09T21:45:33.966Z,4.00
2023-01-09T21:48:04.782Z,3.90
2023-01-09T21:50:31.413Z,3.40
2023-01-09T21:52:57.900Z,3.80
2023-01-09T21:55:24.407Z,3.30
2023-01-09T21:57:55.073Z,3.57
2023-01-09T22:00:22.197Z,2.80
2023-01-09T22:02:48.707Z,2.67
2023-01-09T22:05:15.147Z,1.87
2023-01-09T22:07:41.676Z,1.90
2023-01-09T22:10:09.034Z,1.70
2023-01-09T22:12:35.559Z,1.30
2023-01-09T22:15:02.022Z,1.20
2023-01-09T22:17:29.122Z,1.43
2023-01-09T22:19:55.682Z,1.53
2023-01-09T22:22:22.191Z,2.20
2023-01-09T22:24:50.200Z,1.13
2023-01-09T22:27:16.720Z,1.50
2023-01-09T22:29:43.178Z,1.40
2023-01-09T22:32:09.668Z,1.37
2023-01-09T22:34:36.149Z,1.17
2023-01-09T22:37:02.661Z,1.60
2023-01-09T22:39:29.129Z,1.23
2023-01-09T22:41:55.752Z,1.87
2023-01-09T22:44:22.294Z,2.30
2023-01-09T22:46:48.746Z,2.00
2023-01-09T22:49:15.287Z,1.90
2023-01-09T22:51:41.750Z,1.10
2023-01-09T22:54:08.230Z,1.50
2023-01-09T22:56:34.944Z,1.73
2023-01-09T22:59:01.408Z,1.90
2023-01-09T23:01:27.972Z,2.50
2023-01-09T23:03:54.470Z,1.63
2023-01-09T23:06:22.328Z,1.93
2023-01-09T23:08:53.449Z,1.90
2023-01-09T23:11:43.231Z,1.90
2023-01-09T23:14:10.755Z,1.90
2023-01-09T23:16:37.363Z,2.13
2023-01-09T23:19:07.093Z,2.20
2023-01-09T23:21:33.571Z,1.70
2023-01-09T23:24:00.073Z,1.77
2023-01-09T23:26:26.639Z,2.00
2023-01-09T23:28:53.108Z,2.10
2023-01-09T23:31:19.736Z,1.80
2023-01-09T23:33:46.191Z,2.37
2023-01-09T23:36:12.634Z,2.87
2023-01-09T23:38:39.118Z,2.57
2023-01-09T23:41:05.559Z,2.70
2023-01-09T23:43:32.038Z,4.40
2023-01-09T23:45:58.562Z,2.67
2023-01-09T23:48:25.139Z,3.13
2023-01-09T23:50:53.323Z,2.30
2023-01-09T23:53:21.343Z,2.80
2023-01-09T23:55:48.560Z,2.80
2023-01-09T23:58:15.048Z,2.73
